Terminal Aerodrome Forecast
Issued by NWS Greer, SC

Home | Current Version | Previous Version | Text Only | Print | Product List | Glossary On
Versions: 1 2 3 4 5 6 7 8 9 10 11 12 13 14 15 16 17 18
000
FTUS42 KGSP 241213 AAA
TAFGSP
TAF AMD
KGSP 241213Z 2412/2512 16005KT P6SM OVC050
     FM241500 21006KT P6SM BKN050
     FM251000 18003KT P6SM BKN030=

USA.gov is the U.S. government's official web portal to all federal, state and local government web resources and services.